Aviation Digital Data Service (ADDS)

Output produced by METARs form (0537 UTC 22 October 2018)
found at http://www.aviationweather.gov/metar/data/
 
METAR text: KGYI 220515Z AUTO 10003KT 10SM CLR 11/05 A3023 RMK AO2 T01100051 TSNO
Conditions at: KGYI (SHERMAN/DENISON , TX, US) observed 0515 UTC 22 October 2018
Temperature: 11.0°C (52°F)
Dewpoint: 5.1°C (41°F) [RH = 67%]
Pressure (altimeter): 30.23 inches Hg (1023.8 mb)
Winds: from the E (100 degrees) at 3 MPH (3 knots; 1.5 m/s)
Visibility: 10 or more miles (16+ km)
Ceiling: at least 12,000 feet AGL
Clouds: sky clear below 12,000 feet AGL
Weather: automated observation with no human augmentation;
there may or may not be significant weather present at this time